sensor_id;sensor_type;location;lat;lon;timestamp;pressure;altitude;pressure_sealevel;temperature;humidity
63903;BME280;50072;50.678;13.938;2022-08-21T00:02:18;99457.94;;;17.48;99.47
63903;BME280;50072;50.678;13.938;2022-08-21T00:04:45;99466.88;;;17.50;99.43
63903;BME280;50072;50.678;13.938;2022-08-21T00:07:11;99467.72;;;17.51;98.92
63903;BME280;50072;50.678;13.938;2022-08-21T00:09:37;99465.97;;;17.50;99.75
63903;BME280;50072;50.678;13.938;2022-08-21T00:12:04;99454.28;;;17.49;99.90
63903;BME280;50072;50.678;13.938;2022-08-21T00:14:30;99467.72;;;17.51;99.88
63903;BME280;50072;50.678;13.938;2022-08-21T00:16:56;99459.69;;;17.49;100.00
63903;BME280;50072;50.678;13.938;2022-08-21T00:19:22;99455.16;;;17.50;99.74
63903;BME280;50072;50.678;13.938;2022-08-21T00:21:51;99456.03;;;17.50;99.85
63903;BME280;50072;50.678;13.938;2022-08-21T00:24:19;99467.72;;;17.51;100.00
63903;BME280;50072;50.678;13.938;2022-08-21T00:26:45;99454.28;;;17.49;99.82
63903;BME280;50072;50.678;13.938;2022-08-21T00:29:12;99459.69;;;17.49;99.59
63903;BME280;50072;50.678;13.938;2022-08-21T00:31:39;99457.84;;;17.50;99.60
63903;BME280;50072;50.678;13.938;2022-08-21T00:34:06;99450.53;;;17.52;100.00
63903;BME280;50072;50.678;13.938;2022-08-21T00:36:33;99457.66;;;17.53;100.00
63903;BME280;50072;50.678;13.938;2022-08-21T00:38:59;99451.31;;;17.54;99.97
63903;BME280;50072;50.678;13.938;2022-08-21T00:41:25;99448.50;;;17.55;100.00
63903;BME280;50072;50.678;13.938;2022-08-21T00:43:53;99450.34;;;17.55;100.00
63903;BME280;50072;50.678;13.938;2022-08-21T00:46:19;99451.13;;;17.57;100.00
63903;BME280;50072;50.678;13.938;2022-08-21T00:48:44;99451.31;;;17.54;99.66
63903;BME280;50072;50.678;13.938;2022-08-21T00:51:14;99454.81;;;17.56;99.95
63903;BME280;50072;50.678;13.938;2022-08-21T00:53:43;99444.16;;;17.53;100.00
63903;BME280;50072;50.678;13.938;2022-08-21T00:56:11;99451.13;;;17.57;100.00
63903;BME280;50072;50.678;13.938;2022-08-21T00:58:39;99449.31;;;17.57;100.00
63903;BME280;50072;50.678;13.938;2022-08-21T01:01:06;99451.22;;;17.55;99.79
63903;BME280;50072;50.678;13.938;2022-08-21T01:03:32;99447.94;;;17.50;99.20
63903;BME280;50072;50.678;13.938;2022-08-21T01:06:00;99450.72;;;17.49;99.47
63903;BME280;50072;50.678;13.938;2022-08-21T01:08:27;99452.44;;;17.50;99.48
63903;BME280;50072;50.678;13.938;2022-08-21T01:10:55;99452.19;;;17.54;100.00
63903;BME280;50072;50.678;13.938;2022-08-21T01:13:23;99450.34;;;17.55;99.98
63903;BME280;50072;50.678;13.938;2022-08-21T01:15:53;99458.47;;;17.55;100.00
63903;BME280;50072;50.678;13.938;2022-08-21T01:18:20;99456.03;;;17.50;99.92
63903;BME280;50072;50.678;13.938;2022-08-21T01:21:13;99447.22;;;17.47;99.81
63903;BME280;50072;50.678;13.938;2022-08-21T01:23:42;99448.16;;;17.46;99.49
63903;BME280;50072;50.678;13.938;2022-08-21T01:26:09;99444.50;;;17.47;99.80
63903;BME280;50072;50.678;13.938;2022-08-21T01:28:42;99453.56;;;17.46;99.74
63903;BME280;50072;50.678;13.938;2022-08-21T01:31:10;99449.25;;;17.43;100.00
63903;BME280;50072;50.678;13.938;2022-08-21T01:33:39;99453.56;;;17.46;100.00
63903;BME280;50072;50.678;13.938;2022-08-21T01:36:07;99445.63;;;17.42;100.00
63903;BME280;50072;50.678;13.938;2022-08-21T01:38:33;99447.47;;;17.42;100.00
63903;BME280;50072;50.678;13.938;2022-08-21T01:40:59;99447.47;;;17.42;100.00
63903;BME280;50072;50.678;13.938;2022-08-21T01:43:25;99450.09;;;17.43;100.00
63903;BME280;50072;50.678;13.938;2022-08-21T01:45:51;99441.13;;;17.43;100.00
63903;BME280;50072;50.678;13.938;2022-08-21T01:48:17;99443.75;;;17.45;100.00
63903;BME280;50072;50.678;13.938;2022-08-21T01:50:42;99442.75;;;17.46;100.00
63903;BME280;50072;50.678;13.938;2022-08-21T01:53:08;99441.97;;;17.43;100.00
63903;BME280;50072;50.678;13.938;2022-08-21T01:55:34;99448.16;;;17.46;100.00
63903;BME280;50072;50.678;13.938;2022-08-21T01:57:59;99436.38;;;17.47;100.00
63903;BME280;50072;50.678;13.938;2022-08-21T02:00:26;99436.38;;;17.47;100.00
63903;BME280;50072;50.678;13.938;2022-08-21T02:02:52;99442.84;;;17.44;100.00
63903;BME280;50072;50.678;13.938;2022-08-21T02:05:18;99428.63;;;17.40;100.00
63903;BME280;50072;50.678;13.938;2022-08-21T02:07:48;99438.41;;;17.43;100.00
63903;BME280;50072;50.678;13.938;2022-08-21T02:10:18;99444.69;;;17.43;100.00
63903;BME280;50072;50.678;13.938;2022-08-21T02:12:44;99442.94;;;17.42;100.00
63903;BME280;50072;50.678;13.938;2022-08-21T02:15:10;99450.09;;;17.43;100.00
63903;BME280;50072;50.678;13.938;2022-08-21T02:17:45;99443.75;;;17.45;100.00
63903;BME280;50072;50.678;13.938;2022-08-21T02:20:18;99441.03;;;17.45;100.00
63903;BME280;50072;50.678;13.938;2022-08-21T02:22:44;99441.97;;;17.43;100.00
63903;BME280;50072;50.678;13.938;2022-08-21T02:25:11;99439.19;;;17.45;100.00
63903;BME280;50072;50.678;13.938;2022-08-21T02:27:39;99435.63;;;17.45;100.00
63903;BME280;50072;50.678;13.938;2022-08-21T02:30:07;99432.91;;;17.45;100.00
63903;BME280;50072;50.678;13.938;2022-08-21T02:32:33;99429.84;;;17.35;100.00
63903;BME280;50072;50.678;13.938;2022-08-21T02:34:58;99437.69;;;17.39;100.00
63903;BME280;50072;50.678;13.938;2022-08-21T02:37:24;99435.84;;;17.40;100.00
63903;BME280;50072;50.678;13.938;2022-08-21T02:39:50;99434.22;;;17.37;100.00
63903;BME280;50072;50.678;13.938;2022-08-21T02:42:16;99435.28;;;17.35;100.00
63903;BME280;50072;50.678;13.938;2022-08-21T02:44:42;99434.38;;;17.34;100.00
63903;BME280;50072;50.678;13.938;2022-08-21T02:47:08;99422.69;;;17.34;100.00
63903;BME280;50072;50.678;13.938;2022-08-21T02:49:34;99435.09;;;17.38;100.00
63903;BME280;50072;50.678;13.938;2022-08-21T02:51:59;99434.13;;;17.39;100.00
63903;BME280;50072;50.678;13.938;2022-08-21T02:54:25;99443.28;;;17.36;100.00
63903;BME280;50072;50.678;13.938;2022-08-21T02:56:51;99429.16;;;17.31;100.00
63903;BME280;50072;50.678;13.938;2022-08-21T02:59:16;99426.44;;;17.31;100.00
63903;BME280;50072;50.678;13.938;2022-08-21T03:01:43;99439.78;;;17.34;100.00
63903;BME280;50072;50.678;13.938;2022-08-21T03:04:09;99435.34;;;17.33;100.00
63903;BME280;50072;50.678;13.938;2022-08-21T03:06:36;99432.66;;;17.33;100.00
63903;BME280;50072;50.678;13.938;2022-08-21T03:09:02;99448.63;;;17.38;100.00
63903;BME280;50072;50.678;13.938;2022-08-21T03:11:28;99443.97;;;17.40;100.00
63903;BME280;50072;50.678;13.938;2022-08-21T03:13:54;99444.16;;;17.37;100.00
63903;BME280;50072;50.678;13.938;2022-08-21T03:16:19;99448.69;;;17.36;100.00
63903;BME280;50072;50.678;13.938;2022-08-21T03:18:46;99448.53;;;17.39;100.00
63903;BME280;50072;50.678;13.938;2022-08-21T03:21:12;99444.88;;;17.40;100.00
63903;BME280;50072;50.678;13.938;2022-08-21T03:23:39;99435.84;;;17.40;100.00
63903;BME280;50072;50.678;13.938;2022-08-21T03:26:07;99448.34;;;17.42;100.00
63903;BME280;50072;50.678;13.938;2022-08-21T03:28:33;99443.13;;;17.39;100.00
63903;BME280;50072;50.678;13.938;2022-08-21T03:30:59;99449.25;;;17.43;100.00
63903;BME280;50072;50.678;13.938;2022-08-21T03:33:26;99448.44;;;17.41;100.00
63903;BME280;50072;50.678;13.938;2022-08-21T03:35:58;99448.63;;;17.38;100.00
63903;BME280;50072;50.678;13.938;2022-08-21T03:38:27;99447.47;;;17.42;100.00
63903;BME280;50072;50.678;13.938;2022-08-21T03:40:54;99449.31;;;17.41;100.00
63903;BME280;50072;50.678;13.938;2022-08-21T03:43:20;99445.19;;;17.34;100.00
63903;BME280;50072;50.678;13.938;2022-08-21T03:45:48;99444.34;;;17.34;100.00
63903;BME280;50072;50.678;13.938;2022-08-21T03:48:14;99451.75;;;17.30;99.50
63903;BME280;50072;50.678;13.938;2022-08-21T03:50:42;99439.38;;;17.26;99.26
63903;BME280;50072;50.678;13.938;2022-08-21T03:53:10;99457.22;;;17.29;98.26
63903;BME280;50072;50.678;13.938;2022-08-21T03:55:37;99450.28;;;17.24;97.71
63903;BME280;50072;50.678;13.938;2022-08-21T03:58:03;99453.22;;;17.20;97.59
63903;BME280;50072;50.678;13.938;2022-08-21T04:00:29;99447.13;;;17.16;97.11
63903;BME280;50072;50.678;13.938;2022-08-21T04:02:54;99451.63;;;17.16;97.72
63903;BME280;50072;50.678;13.938;2022-08-21T04:05:21;99458.97;;;17.14;98.46
63903;BME280;50072;50.678;13.938;2022-08-21T04:08:01;99450.97;;;17.12;99.08
63903;BME280;50072;50.678;13.938;2022-08-21T04:10:30;99459.16;;;17.11;99.44
63903;BME280;50072;50.678;13.938;2022-08-21T04:12:56;99455.91;;;17.04;99.76
63903;BME280;50072;50.678;13.938;2022-08-21T04:15:24;99461.22;;;17.05;98.62
63903;BME280;50072;50.678;13.938;2022-08-21T04:17:51;99482.84;;;17.05;98.14
63903;BME280;50072;50.678;13.938;2022-08-21T04:20:19;99486.50;;;17.04;99.26
63903;BME280;50072;50.678;13.938;2022-08-21T04:22:45;99482.09;;;17.03;100.00
63903;BME280;50072;50.678;13.938;2022-08-21T04:25:13;99483.03;;;17.02;99.90
63903;BME280;50072;50.678;13.938;2022-08-21T04:27:39;99485.81;;;17.01;100.00
63903;BME280;50072;50.678;13.938;2022-08-21T04:30:07;99486.69;;;17.01;100.00
63903;BME280;50072;50.678;13.938;2022-08-21T04:32:35;99496.47;;;17.04;100.00
63903;BME280;50072;50.678;13.938;2022-08-21T04:35:06;99491.91;;;17.04;100.00
63903;BME280;50072;50.678;13.938;2022-08-21T04:37:34;99495.44;;;17.06;100.00
63903;BME280;50072;50.678;13.938;2022-08-21T04:40:00;99500.84;;;17.06;100.00
63903;BME280;50072;50.678;13.938;2022-08-21T04:42:27;99495.34;;;17.08;100.00
63903;BME280;50072;50.678;13.938;2022-08-21T04:44:54;99504.31;;;17.08;100.00
63903;BME280;50072;50.678;13.938;2022-08-21T04:47:21;99508.78;;;17.10;100.00
63903;BME280;50072;50.678;13.938;2022-08-21T04:49:47;99499.81;;;17.09;100.00
63903;BME280;50072;50.678;13.938;2022-08-21T04:52:17;99499.63;;;17.12;100.00
63903;BME280;50072;50.678;13.938;2022-08-21T04:54:45;99490.56;;;17.13;100.00
63903;BME280;50072;50.678;13.938;2022-08-21T04:57:14;99499.53;;;17.14;100.00
63903;BME280;50072;50.678;13.938;2022-08-21T04:59:44;99498.50;;;17.16;100.00
63903;BME280;50072;50.678;13.938;2022-08-21T05:02:11;99498.59;;;17.15;100.00
63903;BME280;50072;50.678;13.938;2022-08-21T05:04:43;99508.38;;;17.17;100.00
63903;BME280;50072;50.678;13.938;2022-08-21T05:07:20;99505.72;;;17.16;100.00
63903;BME280;50072;50.678;13.938;2022-08-21T05:09:48;99505.59;;;17.19;100.00
63903;BME280;50072;50.678;13.938;2022-08-21T05:12:14;99502.97;;;17.17;100.00
63903;BME280;50072;50.678;13.938;2022-08-21T05:14:40;99509.91;;;17.21;100.00
63903;BME280;50072;50.678;13.938;2022-08-21T05:17:06;99504.59;;;17.20;100.00
63903;BME280;50072;50.678;13.938;2022-08-21T05:19:32;99510.81;;;17.22;99.62
63903;BME280;50072;50.678;13.938;2022-08-21T05:21:59;99504.28;;;17.26;100.00
63903;BME280;50072;50.678;13.938;2022-08-21T05:24:25;99490.75;;;17.26;100.00
63903;BME280;50072;50.678;13.938;2022-08-21T05:26:51;99501.22;;;17.32;100.00
63903;BME280;50072;50.678;13.938;2022-08-21T05:29:17;99486.75;;;17.33;100.00
63903;BME280;50072;50.678;13.938;2022-08-21T05:31:43;99497.31;;;17.38;100.00
63903;BME280;50072;50.678;13.938;2022-08-21T05:34:09;99496.34;;;17.39;100.00
63903;BME280;50072;50.678;13.938;2022-08-21T05:36:35;99491.81;;;17.39;100.00
63903;BME280;50072;50.678;13.938;2022-08-21T05:39:01;99507.53;;;17.49;100.00
63903;BME280;50072;50.678;13.938;2022-08-21T05:41:27;99505.78;;;17.48;100.00
63903;BME280;50072;50.678;13.938;2022-08-21T05:43:53;99503.25;;;17.45;100.00
63903;BME280;50072;50.678;13.938;2022-08-21T05:46:19;99515.72;;;17.47;99.76
63903;BME280;50072;50.678;13.938;2022-08-21T05:48:45;99519.31;;;17.48;99.30
63903;BME280;50072;50.678;13.938;2022-08-21T05:51:13;99525.84;;;17.43;98.93
63903;BME280;50072;50.678;13.938;2022-08-21T05:53:40;99528.47;;;17.45;98.40
63903;BME280;50072;50.678;13.938;2022-08-21T05:56:08;99519.41;;;17.46;98.81
63903;BME280;50072;50.678;13.938;2022-08-21T05:58:34;99520.09;;;17.50;98.44
63903;BME280;50072;50.678;13.938;2022-08-21T06:01:01;99523.59;;;17.52;97.84
63903;BME280;50072;50.678;13.938;2022-08-21T06:03:30;99515.31;;;17.55;99.16
63903;BME280;50072;50.678;13.938;2022-08-21T06:05:57;99515.22;;;17.56;98.54
63903;BME280;50072;50.678;13.938;2022-08-21T06:08:24;99517.66;;;17.61;98.21
63903;BME280;50072;50.678;13.938;2022-08-21T06:10:52;99524.63;;;17.65;98.10
63903;BME280;50072;50.678;13.938;2022-08-21T06:13:19;99515.38;;;17.69;98.96
63903;BME280;50072;50.678;13.938;2022-08-21T06:15:46;99512.41;;;17.74;98.74
63903;BME280;50072;50.678;13.938;2022-08-21T06:18:13;99495.94;;;17.79;99.22
63903;BME280;50072;50.678;13.938;2022-08-21T06:20:39;99491.91;;;17.86;99.90
63903;BME280;50072;50.678;13.938;2022-08-21T06:23:05;99496.16;;;17.90;99.26
63903;BME280;50072;50.678;13.938;2022-08-21T06:25:31;99489.47;;;17.97;99.14
63903;BME280;50072;50.678;13.938;2022-08-21T06:28:04;99483.78;;;18.02;99.40
63903;BME280;50072;50.678;13.938;2022-08-21T06:30:31;99487.06;;;18.07;99.51
63903;BME280;50072;50.678;13.938;2022-08-21T06:32:56;99488.44;;;18.14;99.53
63903;BME280;50072;50.678;13.938;2022-08-21T06:35:22;99491.59;;;18.22;98.83
63903;BME280;50072;50.678;13.938;2022-08-21T06:37:50;99495.94;;;18.25;98.18
63903;BME280;50072;50.678;13.938;2022-08-21T06:40:16;99496.56;;;18.30;97.54
63903;BME280;50072;50.678;13.938;2022-08-21T06:42:42;99498.13;;;18.34;96.78
63903;BME280;50072;50.678;13.938;2022-08-21T06:45:09;99503.25;;;18.39;96.78
63903;BME280;50072;50.678;13.938;2022-08-21T06:47:35;99507.53;;;18.43;96.56
63903;BME280;50072;50.678;13.938;2022-08-21T06:50:00;99501.81;;;18.48;96.74
63903;BME280;50072;50.678;13.938;2022-08-21T06:52:26;99493.59;;;18.49;96.81
63903;BME280;50072;50.678;13.938;2022-08-21T06:54:52;99502.50;;;18.51;95.60
63903;BME280;50072;50.678;13.938;2022-08-21T06:57:18;99512.28;;;18.54;96.23
63903;BME280;50072;50.678;13.938;2022-08-21T06:59:44;99514.03;;;18.55;93.67
63903;BME280;50072;50.678;13.938;2022-08-21T07:02:10;99508.00;;;18.50;92.29
63903;BME280;50072;50.678;13.938;2022-08-21T07:04:36;99512.47;;;18.51;92.41
63903;BME280;50072;50.678;13.938;2022-08-21T07:07:03;99521.41;;;18.53;92.47
63903;BME280;50072;50.678;13.938;2022-08-21T07:09:30;99520.31;;;18.55;92.19
63903;BME280;50072;50.678;13.938;2022-08-21T07:11:56;99517.50;;;18.57;91.64
63903;BME280;50072;50.678;13.938;2022-08-21T07:14:22;99520.22;;;18.57;92.40
63903;BME280;50072;50.678;13.938;2022-08-21T07:16:49;99523.81;;;18.57;91.42
63903;BME280;50072;50.678;13.938;2022-08-21T07:19:14;99513.53;;;18.48;90.31
63903;BME280;50072;50.678;13.938;2022-08-21T07:21:40;99523.94;;;18.56;91.83
63903;BME280;50072;50.678;13.938;2022-08-21T07:24:06;99511.22;;;18.56;91.29
63903;BME280;50072;50.678;13.938;2022-08-21T07:26:32;99514.75;;;18.58;91.85
63903;BME280;50072;50.678;13.938;2022-08-21T07:28:58;99527.81;;;18.66;91.89
63903;BME280;50072;50.678;13.938;2022-08-21T07:31:26;99525.09;;;18.66;91.25
63903;BME280;50072;50.678;13.938;2022-08-21T07:33:52;99518.81;;;18.66;91.38
63903;BME280;50072;50.678;13.938;2022-08-21T07:36:18;99509.03;;;18.63;89.82
63903;BME280;50072;50.678;13.938;2022-08-21T07:38:44;99517.56;;;18.71;91.38
63903;BME280;50072;50.678;13.938;2022-08-21T07:41:19;99511.34;;;18.69;92.15
63903;BME280;50072;50.678;13.938;2022-08-21T07:43:46;99509.22;;;18.60;89.86
63903;BME280;50072;50.678;13.938;2022-08-21T07:46:12;99520.06;;;18.60;89.87
63903;BME280;50072;50.678;13.938;2022-08-21T07:48:38;99521.03;;;18.59;91.09
63903;BME280;50072;50.678;13.938;2022-08-21T07:51:13;99521.69;;;18.62;91.48
63903;BME280;50072;50.678;13.938;2022-08-21T07:53:39;99511.94;;;18.60;92.47
63903;BME280;50072;50.678;13.938;2022-08-21T07:56:06;99514.06;;;18.69;93.97
63903;BME280;50072;50.678;13.938;2022-08-21T07:58:34;99522.72;;;18.76;93.32
63903;BME280;50072;50.678;13.938;2022-08-21T08:00:59;99505.53;;;18.75;93.62
63903;BME280;50072;50.678;13.938;2022-08-21T08:03:26;99510.41;;;18.85;92.90
63903;BME280;50072;50.678;13.938;2022-08-21T08:05:52;99514.63;;;18.90;92.96
63903;BME280;50072;50.678;13.938;2022-08-21T08:08:17;99515.97;;;18.97;93.75
63903;BME280;50072;50.678;13.938;2022-08-21T08:10:43;99519.75;;;19.09;93.70
63903;BME280;50072;50.678;13.938;2022-08-21T08:13:10;99520.94;;;19.20;93.56
63903;BME280;50072;50.678;13.938;2022-08-21T08:15:36;99518.78;;;19.25;93.16
63903;BME280;50072;50.678;13.938;2022-08-21T08:18:03;99512.78;;;19.34;91.71
63903;BME280;50072;50.678;13.938;2022-08-21T08:20:28;99519.56;;;19.41;91.46
63903;BME280;50072;50.678;13.938;2022-08-21T08:22:55;99523.72;;;19.47;87.64
63903;BME280;50072;50.678;13.938;2022-08-21T08:25:22;99520.81;;;19.50;89.30
63903;BME280;50072;50.678;13.938;2022-08-21T08:27:48;99523.44;;;19.52;88.60
63903;BME280;50072;50.678;13.938;2022-08-21T08:30:18;99522.56;;;19.51;88.88
63903;BME280;50072;50.678;13.938;2022-08-21T08:32:44;99516.84;;;19.56;89.23
63903;BME280;50072;50.678;13.938;2022-08-21T08:35:10;99524.88;;;19.57;89.70
63903;BME280;50072;50.678;13.938;2022-08-21T08:37:37;99530.41;;;19.56;89.75
63903;BME280;50072;50.678;13.938;2022-08-21T08:40:22;99529.81;;;19.51;88.99
63903;BME280;50072;50.678;13.938;2022-08-21T08:42:51;99533.59;;;19.48;88.76
63903;BME280;50072;50.678;13.938;2022-08-21T08:45:20;99530.03;;;19.47;89.23
63903;BME280;50072;50.678;13.938;2022-08-21T08:47:54;99530.78;;;19.49;90.37
63903;BME280;50072;50.678;13.938;2022-08-21T08:50:28;99533.44;;;19.51;90.01
63903;BME280;50072;50.678;13.938;2022-08-21T08:53:05;99532.16;;;19.57;90.63
63903;BME280;50072;50.678;13.938;2022-08-21T08:55:41;99529.03;;;19.63;91.25
63903;BME280;50072;50.678;13.938;2022-08-21T08:58:27;99530.78;;;19.64;89.97
63903;BME280;50072;50.678;13.938;2022-08-21T09:00:56;99531.53;;;19.66;90.48
63903;BME280;50072;50.678;13.938;2022-08-21T09:03:23;99536.00;;;19.67;90.84
63903;BME280;50072;50.678;13.938;2022-08-21T09:06:03;99529.97;;;19.76;88.13
63903;BME280;50072;50.678;13.938;2022-08-21T09:14:16;99543.97;;;20.12;86.62
63903;BME280;50072;50.678;13.938;2022-08-21T09:16:59;99539.09;;;20.17;86.04
63903;BME280;50072;50.678;13.938;2022-08-21T09:19:51;99535.22;;;20.21;85.12
63903;BME280;50072;50.678;13.938;2022-08-21T09:22:33;99523.06;;;20.27;85.00
63903;BME280;50072;50.678;13.938;2022-08-21T09:25:08;99530.03;;;20.31;84.64
63903;BME280;50072;50.678;13.938;2022-08-21T09:27:36;99516.53;;;20.29;84.35
63903;BME280;50072;50.678;13.938;2022-08-21T09:30:05;99528.44;;;20.41;84.38
63903;BME280;50072;50.678;13.938;2022-08-21T09:32:34;99525.38;;;20.46;84.35
63903;BME280;50072;50.678;13.938;2022-08-21T09:37:54;99536.72;;;20.52;83.72
63903;BME280;50072;50.678;13.938;2022-08-21T09:40:33;99535.28;;;20.47;79.58
63903;BME280;50072;50.678;13.938;2022-08-21T09:45:43;99530.25;;;20.41;78.26
63903;BME280;50072;50.678;13.938;2022-08-21T09:48:18;99528.06;;;20.33;77.13
63903;BME280;50072;50.678;13.938;2022-08-21T09:50:45;99527.84;;;20.36;77.86
63903;BME280;50072;50.678;13.938;2022-08-21T09:53:22;99524.16;;;20.37;73.29
63903;BME280;50072;50.678;13.938;2022-08-21T09:55:55;99523.31;;;20.37;74.02
63903;BME280;50072;50.678;13.938;2022-08-21T09:58:43;99521.91;;;20.44;76.83
63903;BME280;50072;50.678;13.938;2022-08-21T10:01:16;99523.44;;;20.48;74.50
63903;BME280;50072;50.678;13.938;2022-08-21T10:03:43;99512.78;;;20.58;76.04
63903;BME280;50072;50.678;13.938;2022-08-21T10:06:10;99514.91;;;20.67;75.42
63903;BME280;50072;50.678;13.938;2022-08-21T10:08:46;99520.81;;;20.74;72.10
63903;BME280;50072;50.678;13.938;2022-08-21T10:11:15;99516.00;;;20.77;72.37
63903;BME280;50072;50.678;13.938;2022-08-21T10:14:17;99522.97;;;20.81;70.35
63903;BME280;50072;50.678;13.938;2022-08-21T10:19:34;99521.44;;;20.90;68.84
63903;BME280;50072;50.678;13.938;2022-08-21T10:36:17;99531.63;;;21.77;67.23
63903;BME280;50072;50.678;13.938;2022-08-21T10:38:56;99533.09;;;21.94;64.90
63903;BME280;50072;50.678;13.938;2022-08-21T10:47:05;99525.84;;;22.54;60.16
63903;BME280;50072;50.678;13.938;2022-08-21T10:55:00;99510.25;;;23.93;56.98
63903;BME280;50072;50.678;13.938;2022-08-21T10:57:42;99517.03;;;24.43;53.52
63903;BME280;50072;50.678;13.938;2022-08-21T11:00:15;99511.59;;;25.06;54.10
63903;BME280;50072;50.678;13.938;2022-08-21T11:02:47;99502.44;;;25.48;54.56
63903;BME280;50072;50.678;13.938;2022-08-21T11:05:29;99505.50;;;25.95;49.75
63903;BME280;50072;50.678;13.938;2022-08-21T11:08:02;99509.88;;;26.47;49.26
63903;BME280;50072;50.678;13.938;2022-08-21T11:10:35;99501.91;;;27.02;47.55
63903;BME280;50072;50.678;13.938;2022-08-21T11:13:07;99503.22;;;27.46;47.96
63903;BME280;50072;50.678;13.938;2022-08-21T11:15:43;99495.56;;;27.95;44.45
63903;BME280;50072;50.678;13.938;2022-08-21T11:18:32;99508.50;;;28.49;45.22
63903;BME280;50072;50.678;13.938;2022-08-21T11:21:20;99493.50;;;29.05;38.69
63903;BME280;50072;50.678;13.938;2022-08-21T11:29:31;99496.78;;;31.44;38.07
63903;BME280;50072;50.678;13.938;2022-08-21T11:43:41;99491.06;;;33.99;30.76
63903;BME280;50072;50.678;13.938;2022-08-21T11:57:15;99487.72;;;34.26;28.49
63903;BME280;50072;50.678;13.938;2022-08-21T11:59:47;99481.56;;;34.45;30.67
63903;BME280;50072;50.678;13.938;2022-08-21T12:02:19;99478.81;;;34.52;29.71
63903;BME280;50072;50.678;13.938;2022-08-21T12:05:06;99468.50;;;34.46;27.70
63903;BME280;50072;50.678;13.938;2022-08-21T12:07:39;99480.75;;;34.30;28.11
63903;BME280;50072;50.678;13.938;2022-08-21T12:10:19;99483.31;;;34.74;26.72
63903;BME280;50072;50.678;13.938;2022-08-21T12:12:47;99483.91;;;35.20;28.44
63903;BME280;50072;50.678;13.938;2022-08-21T12:21:00;99476.66;;;36.02;26.62
63903;BME280;50072;50.678;13.938;2022-08-21T12:23:43;99479.56;;;36.36;26.02
63903;BME280;50072;50.678;13.938;2022-08-21T12:26:18;99481.09;;;36.45;26.72
63903;BME280;50072;50.678;13.938;2022-08-21T12:28:46;99466.63;;;36.15;26.30
63903;BME280;50072;50.678;13.938;2022-08-21T12:31:24;99471.03;;;35.82;26.63
63903;BME280;50072;50.678;13.938;2022-08-21T12:34:01;99476.38;;;36.39;25.83
63903;BME280;50072;50.678;13.938;2022-08-21T12:36:49;99471.41;;;36.34;25.13
63903;BME280;50072;50.678;13.938;2022-08-21T12:39:24;99469.34;;;35.88;25.23
63903;BME280;50072;50.678;13.938;2022-08-21T12:41:57;99453.97;;;35.57;25.35
63903;BME280;50072;50.678;13.938;2022-08-21T12:44:32;99464.81;;;35.45;26.88
63903;BME280;50072;50.678;13.938;2022-08-21T12:47:11;99470.47;;;35.23;26.66
63903;BME280;50072;50.678;13.938;2022-08-21T12:49:50;99457.94;;;34.34;26.73
63903;BME280;50072;50.678;13.938;2022-08-21T12:52:41;99459.72;;;33.39;28.35
63903;BME280;50072;50.678;13.938;2022-08-21T12:55:15;99467.09;;;33.32;28.02
63903;BME280;50072;50.678;13.938;2022-08-21T12:57:42;99454.94;;;33.18;29.56
63903;BME280;50072;50.678;13.938;2022-08-21T13:00:11;99462.53;;;32.86;28.72
63903;BME280;50072;50.678;13.938;2022-08-21T13:02:46;99446.19;;;32.30;29.65
63903;BME280;50072;50.678;13.938;2022-08-21T13:05:16;99444.22;;;32.39;30.07
63903;BME280;50072;50.678;13.938;2022-08-21T13:07:46;99449.56;;;32.40;29.74
63903;BME280;50072;50.678;13.938;2022-08-21T13:12:44;99441.00;;;31.72;31.28
63903;BME280;50072;50.678;13.938;2022-08-21T13:15:11;99453.06;;;31.79;29.97
63903;BME280;50072;50.678;13.938;2022-08-21T13:17:50;99457.16;;;31.04;31.25
63903;BME280;50072;50.678;13.938;2022-08-21T13:22:55;99455.38;;;29.96;31.91
63903;BME280;50072;50.678;13.938;2022-08-21T13:25:26;99455.69;;;29.85;32.41
63903;BME280;50072;50.678;13.938;2022-08-21T13:28:00;99457.78;;;30.16;34.09
63903;BME280;50072;50.678;13.938;2022-08-21T13:30:27;99456.56;;;29.93;32.67
63903;BME280;50072;50.678;13.938;2022-08-21T13:33:03;99450.91;;;30.11;32.34
63903;BME280;50072;50.678;13.938;2022-08-21T13:35:35;99459.72;;;30.23;33.05
63903;BME280;50072;50.678;13.938;2022-08-21T13:38:03;99451.06;;;30.02;33.07
63903;BME280;50072;50.678;13.938;2022-08-21T13:40:44;99456.91;;;30.07;34.11
63903;BME280;50072;50.678;13.938;2022-08-21T13:43:13;99465.38;;;30.05;33.68
63903;BME280;50072;50.678;13.938;2022-08-21T13:45:43;99458.47;;;30.01;32.19
63903;BME280;50072;50.678;13.938;2022-08-21T13:48:09;99456.25;;;29.62;32.64
63903;BME280;50072;50.678;13.938;2022-08-21T13:50:37;99458.13;;;29.61;33.95
63903;BME280;50072;50.678;13.938;2022-08-21T13:53:07;99458.00;;;29.63;32.88
63903;BME280;50072;50.678;13.938;2022-08-21T13:55:44;99453.13;;;29.57;33.20
63903;BME280;50072;50.678;13.938;2022-08-21T13:58:11;99456.94;;;29.56;33.96
63903;BME280;50072;50.678;13.938;2022-08-21T14:00:49;99462.28;;;29.66;32.64
63903;BME280;50072;50.678;13.938;2022-08-21T14:03:29;99457.31;;;29.69;33.02
63903;BME280;50072;50.678;13.938;2022-08-21T14:05:56;99458.34;;;29.68;33.52
63903;BME280;50072;50.678;13.938;2022-08-21T14:08:36;99458.84;;;29.64;35.13
63903;BME280;50072;50.678;13.938;2022-08-21T14:11:05;99456.03;;;29.47;32.11
63903;BME280;50072;50.678;13.938;2022-08-21T14:13:56;99467.28;;;29.01;31.66
63903;BME280;50072;50.678;13.938;2022-08-21T14:16:26;99457.69;;;29.05;32.91
63903;BME280;50072;50.678;13.938;2022-08-21T14:19:08;99462.25;;;29.49;33.47